createdAt,value
2018-01-23T00:00:57.574Z,16.33
2018-01-23T00:02:04.273Z,17.00
2018-01-23T00:03:10.396Z,15.35
2018-01-23T00:04:16.622Z,16.45
2018-01-23T00:05:22.812Z,16.80
2018-01-23T00:06:29.025Z,17.52
2018-01-23T00:07:35.229Z,16.45
2018-01-23T00:08:41.959Z,18.70
2018-01-23T00:09:48.148Z,18.85
2018-01-23T00:10:54.279Z,18.77
2018-01-23T00:12:00.486Z,17.75
2018-01-23T00:13:06.652Z,19.92
2018-01-23T00:14:13.141Z,18.33
2018-01-23T00:15:21.368Z,19.30
2018-01-23T00:16:27.889Z,18.50
2018-01-23T00:17:39.012Z,18.50
2018-01-23T00:18:45.209Z,20.23
2018-01-23T00:19:52.488Z,20.12
2018-01-23T00:20:58.617Z,21.12
2018-01-23T00:22:07.817Z,19.48
2018-01-23T00:23:15.684Z,19.30
2018-01-23T00:24:22.968Z,20.08
2018-01-23T00:25:29.641Z,19.42
2018-01-23T00:26:36.841Z,20.62
2018-01-23T00:27:43.049Z,19.45
2018-01-23T00:28:49.193Z,19.85
2018-01-23T00:29:55.385Z,19.25
2018-01-23T00:31:01.686Z,19.15
2018-01-23T00:32:07.849Z,20.27
2018-01-23T00:33:14.103Z,19.00
2018-01-23T00:34:21.230Z,19.05
2018-01-23T00:35:27.424Z,18.92
2018-01-23T00:36:33.648Z,19.77
2018-01-23T00:37:39.858Z,20.40
2018-01-23T00:38:45.992Z,20.92
2018-01-23T00:39:51.790Z,20.75
2018-01-23T00:40:58.025Z,19.98
2018-01-23T00:42:04.206Z,21.35
2018-01-23T00:43:10.365Z,20.33
2018-01-23T00:44:20.474Z,19.48
2018-01-23T00:45:26.666Z,19.20
2018-01-23T00:46:34.058Z,19.85
2018-01-23T00:47:40.192Z,19.70
2018-01-23T00:48:52.898Z,20.12
2018-01-23T00:49:59.082Z,19.12
2018-01-23T00:51:05.563Z,20.73
2018-01-23T00:52:13.577Z,19.17
2018-01-23T00:53:20.070Z,21.23
2018-01-23T00:54:25.861Z,20.10
2018-01-23T00:55:32.612Z,20.27
2018-01-23T00:56:38.812Z,18.40
2018-01-23T00:57:44.960Z,18.45
2018-01-23T00:58:51.180Z,20.17
2018-01-23T00:59:57.374Z,20.05
2018-01-23T01:01:03.571Z,19.75
2018-01-23T01:02:09.846Z,18.83
2018-01-23T01:03:16.026Z,18.65
2018-01-23T01:04:22.515Z,21.20
2018-01-23T01:05:28.763Z,20.37
2018-01-23T01:06:34.938Z,20.30
2018-01-23T01:07:41.132Z,20.98
2018-01-23T01:08:47.266Z,19.75
2018-01-23T01:09:53.493Z,19.55
2018-01-23T01:11:03.541Z,19.77
2018-01-23T01:12:09.738Z,19.87
2018-01-23T01:13:15.884Z,18.48
2018-01-23T01:14:22.060Z,21.00
2018-01-23T01:15:27.947Z,20.50
2018-01-23T01:16:34.149Z,19.67
2018-01-23T01:17:40.614Z,19.05
2018-01-23T01:18:46.876Z,18.40
2018-01-23T01:19:53.089Z,17.58
2018-01-23T01:20:59.343Z,19.55
2018-01-23T01:22:06.856Z,20.15
2018-01-23T01:23:13.061Z,18.52
2018-01-23T01:24:19.269Z,18.98
2018-01-23T01:25:25.428Z,18.98
2018-01-23T01:26:31.645Z,18.48
2018-01-23T01:27:37.796Z,19.98
2018-01-23T01:28:44.965Z,19.40
2018-01-23T01:29:51.141Z,19.23
2018-01-23T01:30:57.353Z,20.25
2018-01-23T01:32:04.565Z,21.15
2018-01-23T01:33:10.813Z,19.73
2018-01-23T01:34:16.980Z,19.70
2018-01-23T01:35:23.196Z,18.62
2018-01-23T01:36:29.368Z,19.55
2018-01-23T01:37:35.527Z,19.98
2018-01-23T01:38:41.674Z,20.50
2018-01-23T01:39:48.799Z,19.67
2018-01-23T01:40:54.984Z,20.08
2018-01-23T01:42:00.864Z,19.73
2018-01-23T01:43:07.142Z,19.35
2018-01-23T01:44:13.321Z,19.60
2018-01-23T01:45:19.476Z,20.35
2018-01-23T01:46:26.390Z,19.98
2018-01-23T01:47:33.004Z,20.15
2018-01-23T01:48:50.294Z,20.45
2018-01-23T01:49:56.472Z,19.20
2018-01-23T01:51:02.651Z,18.52
2018-01-23T01:52:08.837Z,19.58
2018-01-23T01:53:15.001Z,18.48
2018-01-23T01:54:22.895Z,19.15
2018-01-23T01:55:29.272Z,18.35
2018-01-23T01:56:35.401Z,18.42
2018-01-23T01:57:41.646Z,17.95
2018-01-23T01:58:47.809Z,17.65
2018-01-23T01:59:54.035Z,17.58
2018-01-23T02:01:00.406Z,17.23
2018-01-23T02:02:07.158Z,17.37
2018-01-23T02:03:13.349Z,16.80
2018-01-23T02:04:19.500Z,18.00
2018-01-23T02:05:25.801Z,17.17
2018-01-23T02:06:31.939Z,16.75
2018-01-23T02:07:38.096Z,16.77
2018-01-23T02:08:44.231Z,16.25
2018-01-23T02:09:50.419Z,16.58
2018-01-23T02:10:56.615Z,17.95
2018-01-23T02:12:03.277Z,16.40
2018-01-23T02:13:09.515Z,16.42
2018-01-23T02:14:15.445Z,16.60
2018-01-23T02:15:21.381Z,17.60
2018-01-23T02:16:27.671Z,17.60
2018-01-23T02:17:33.791Z,15.95
2018-01-23T02:18:39.980Z,16.80
2018-01-23T02:19:46.128Z,16.23
2018-01-23T02:20:52.337Z,15.55
2018-01-23T02:21:58.505Z,15.30
2018-01-23T02:23:04.652Z,16.52
2018-01-23T02:24:10.803Z,16.75
2018-01-23T02:25:17.057Z,16.40
2018-01-23T02:26:23.311Z,15.93
2018-01-23T02:27:29.515Z,16.33
2018-01-23T02:28:35.619Z,17.95
2018-01-23T02:29:41.832Z,17.60
2018-01-23T02:30:48.009Z,17.60
2018-01-23T02:31:54.154Z,17.05
2018-01-23T02:33:00.363Z,17.70
2018-01-23T02:34:06.552Z,16.55
2018-01-23T02:35:13.008Z,18.52
2018-01-23T02:36:19.209Z,17.92
2018-01-23T02:37:25.344Z,16.92
2018-01-23T02:38:31.503Z,16.83
2018-01-23T02:39:37.383Z,17.90
2018-01-23T02:40:43.335Z,17.30
2018-01-23T02:41:50.717Z,16.85
2018-01-23T02:42:56.885Z,17.37
2018-01-23T02:44:03.107Z,17.20
2018-01-23T02:45:09.295Z,18.10
2018-01-23T02:46:15.407Z,17.90
2018-01-23T02:47:21.584Z,17.65
2018-01-23T02:48:28.073Z,17.52
2018-01-23T02:49:34.494Z,16.60
2018-01-23T02:50:40.677Z,18.10
2018-01-23T02:51:47.417Z,17.23
2018-01-23T02:52:53.293Z,17.42
2018-01-23T02:53:59.458Z,17.40
2018-01-23T02:55:05.590Z,16.67
2018-01-23T02:56:14.785Z,15.75
2018-01-23T02:57:21.026Z,16.40
2018-01-23T02:58:27.176Z,17.00
2018-01-23T02:59:33.384Z,17.40
2018-01-23T03:00:39.516Z,16.70
2018-01-23T03:01:45.481Z,17.33
2018-01-23T03:02:51.655Z,16.40
2018-01-23T03:03:57.885Z,17.48
2018-01-23T03:05:03.755Z,16.33
2018-01-23T03:06:09.888Z,15.98
2018-01-23T03:07:16.049Z,15.23
2018-01-23T03:08:23.015Z,16.15
2018-01-23T03:09:32.991Z,16.02
2018-01-23T03:10:39.259Z,17.17
2018-01-23T03:11:45.477Z,14.82
2018-01-23T03:12:51.624Z,14.50
2018-01-23T03:13:57.773Z,14.15
2018-01-23T03:15:03.572Z,13.62
2018-01-23T03:16:09.793Z,15.32
2018-01-23T03:17:15.940Z,15.30
2018-01-23T03:18:22.096Z,15.40
2018-01-23T03:19:28.236Z,15.45
2018-01-23T03:20:34.453Z,16.73
2018-01-23T03:21:40.657Z,15.88
2018-01-23T03:22:46.811Z,15.60
2018-01-23T03:23:53.336Z,16.37
2018-01-23T03:24:59.505Z,15.32
2018-01-23T03:26:05.408Z,15.48
2018-01-23T03:27:11.587Z,15.63
2018-01-23T03:28:17.767Z,16.00
2018-01-23T03:29:23.939Z,17.35
2018-01-23T03:30:30.140Z,16.62
2018-01-23T03:31:38.091Z,15.13
2018-01-23T03:32:44.302Z,16.48
2018-01-23T03:33:50.536Z,16.60
2018-01-23T03:34:56.745Z,17.83
2018-01-23T03:36:02.964Z,17.85
2018-01-23T03:37:09.119Z,16.15
2018-01-23T03:38:15.567Z,17.33
2018-01-23T03:39:21.804Z,16.83
2018-01-23T03:40:28.152Z,19.15
2018-01-23T03:41:34.336Z,17.40
2018-01-23T03:42:40.466Z,18.75
2018-01-23T03:43:46.710Z,18.48
2018-01-23T03:44:52.950Z,16.90
2018-01-23T03:45:59.110Z,17.33
2018-01-23T03:47:06.221Z,18.12
2018-01-23T03:48:12.383Z,17.20
2018-01-23T03:49:18.576Z,17.15
2018-01-23T03:50:24.970Z,18.52
2018-01-23T03:51:31.105Z,17.58
2018-01-23T03:52:37.390Z,17.80
2018-01-23T03:53:43.575Z,18.20
2018-01-23T03:54:49.788Z,16.77
2018-01-23T03:55:55.948Z,18.35
2018-01-23T03:57:02.129Z,17.62
2018-01-23T03:58:08.373Z,17.45
2018-01-23T03:59:14.575Z,18.73
2018-01-23T04:00:20.789Z,18.55
2018-01-23T04:01:27.009Z,18.85
2018-01-23T04:02:32.896Z,18.67
2018-01-23T04:03:39.105Z,18.45
2018-01-23T04:04:45.376Z,18.83
2018-01-23T04:05:51.592Z,18.00
2018-01-23T04:06:57.788Z,18.08
2018-01-23T04:08:04.080Z,17.90
2018-01-23T04:09:10.311Z,20.50
2018-01-23T04:10:16.540Z,19.98
2018-01-23T04:11:22.737Z,19.02
2018-01-23T04:12:28.965Z,17.60
2018-01-23T04:13:35.128Z,18.02
2018-01-23T04:14:41.291Z,19.65
2018-01-23T04:15:47.455Z,17.48
2018-01-23T04:16:53.672Z,18.58
2018-01-23T04:17:59.907Z,18.87
2018-01-23T04:19:06.062Z,18.70
2018-01-23T04:20:13.198Z,17.08
2018-01-23T04:21:19.350Z,17.05
2018-01-23T04:22:26.580Z,17.45
2018-01-23T04:23:32.740Z,17.87
2018-01-23T04:24:38.978Z,18.45
2018-01-23T04:25:45.169Z,17.50
2018-01-23T04:26:51.348Z,17.23
2018-01-23T04:27:57.528Z,16.92
2018-01-23T04:29:03.661Z,16.35
2018-01-23T04:30:09.894Z,17.95
2018-01-23T04:31:16.081Z,17.08
2018-01-23T04:32:22.271Z,17.75
2018-01-23T04:33:28.379Z,16.60
2018-01-23T04:34:34.490Z,18.50
2018-01-23T04:35:40.693Z,19.33
2018-01-23T04:36:47.171Z,18.52
2018-01-23T04:37:53.692Z,17.23
2018-01-23T04:39:00.726Z,16.50
2018-01-23T04:40:06.953Z,16.50
2018-01-23T04:41:13.094Z,16.90
2018-01-23T04:42:19.528Z,17.10
2018-01-23T04:43:25.683Z,16.65
2018-01-23T04:44:31.804Z,17.02
2018-01-23T04:45:37.931Z,17.27
2018-01-23T04:46:44.067Z,15.50
2018-01-23T04:47:50.264Z,16.95
2018-01-23T04:48:56.400Z,16.60
2018-01-23T04:50:02.570Z,16.37
2018-01-23T04:51:09.093Z,16.48
2018-01-23T04:52:15.321Z,15.40
2018-01-23T04:53:21.451Z,14.98
2018-01-23T04:54:27.568Z,15.75
2018-01-23T04:55:33.837Z,14.98
2018-01-23T04:56:40.007Z,14.27
2018-01-23T04:57:46.159Z,14.18
2018-01-23T04:58:52.366Z,15.20
2018-01-23T04:59:58.565Z,14.52
2018-01-23T05:01:04.761Z,14.25
2018-01-23T05:02:10.957Z,13.10
2018-01-23T05:03:17.106Z,12.02
2018-01-23T05:04:23.244Z,10.13
2018-01-23T05:05:29.465Z,13.10
2018-01-23T05:06:35.824Z,12.45
2018-01-23T05:07:42.113Z,13.32
2018-01-23T05:08:48.272Z,12.35
2018-01-23T05:09:54.489Z,11.60
2018-01-23T05:11:00.664Z,11.27
2018-01-23T05:12:06.841Z,12.70
2018-01-23T05:13:13.007Z,12.13
2018-01-23T05:14:19.417Z,12.15
2018-01-23T05:15:25.535Z,12.60
2018-01-23T05:16:31.701Z,11.60
2018-01-23T05:17:37.895Z,10.50
2018-01-23T05:18:44.186Z,12.23
2018-01-23T05:19:51.385Z,12.48
2018-01-23T05:20:57.544Z,12.30
2018-01-23T05:22:03.707Z,11.70
2018-01-23T05:23:09.913Z,12.13
2018-01-23T05:24:16.129Z,12.40
2018-01-23T05:25:22.287Z,11.95
2018-01-23T05:26:28.437Z,11.50
2018-01-23T05:27:34.688Z,12.95
2018-01-23T05:28:40.857Z,13.02
2018-01-23T05:29:47.891Z,11.48
2018-01-23T05:30:54.061Z,12.60
2018-01-23T05:32:00.263Z,12.13
2018-01-23T05:33:06.456Z,12.50
2018-01-23T05:34:13.971Z,12.15
2018-01-23T05:35:20.306Z,11.10
2018-01-23T05:36:26.736Z,12.85
2018-01-23T05:37:32.887Z,11.02
2018-01-23T05:38:39.060Z,11.27
2018-01-23T05:39:44.944Z,12.25
2018-01-23T05:40:51.059Z,10.85
2018-01-23T05:41:57.256Z,11.98
2018-01-23T05:43:03.699Z,10.85
2018-01-23T05:44:09.866Z,11.25
2018-01-23T05:45:16.107Z,10.65
2018-01-23T05:46:22.319Z,10.40
2018-01-23T05:47:29.357Z,11.20
2018-01-23T05:48:35.853Z,10.95
2018-01-23T05:49:42.129Z,11.12
2018-01-23T05:50:48.278Z,10.38
2018-01-23T05:51:55.358Z,9.25
2018-01-23T05:53:01.584Z,9.75
2018-01-23T05:54:07.725Z,10.35
2018-01-23T05:55:13.879Z,9.02
2018-01-23T05:56:20.077Z,10.15
2018-01-23T05:57:26.413Z,10.77
2018-01-23T05:58:33.354Z,10.45
2018-01-23T05:59:39.511Z,10.00
2018-01-23T06:00:45.707Z,10.52
2018-01-23T06:01:51.981Z,11.02
2018-01-23T06:02:58.423Z,11.82
2018-01-23T06:04:05.238Z,11.00
2018-01-23T06:05:11.061Z,10.13
2018-01-23T06:06:17.284Z,11.05
2018-01-23T06:07:23.872Z,10.77
2018-01-23T06:08:31.029Z,10.80
2018-01-23T06:09:37.185Z,11.18
2018-01-23T06:10:43.421Z,10.40
2018-01-23T06:11:49.663Z,11.15
2018-01-23T06:12:55.853Z,10.35
2018-01-23T06:14:02.049Z,13.65
2018-01-23T06:15:08.236Z,10.48
2018-01-23T06:16:14.647Z,10.88
2018-01-23T06:17:21.051Z,11.18
2018-01-23T06:18:27.372Z,11.20
2018-01-23T06:19:33.504Z,11.23
2018-01-23T06:20:39.678Z,11.23
2018-01-23T06:21:45.896Z,11.75
2018-01-23T06:22:52.049Z,9.90
2018-01-23T06:23:58.188Z,10.90
2018-01-23T06:25:04.388Z,10.45
2018-01-23T06:26:10.515Z,11.63
2018-01-23T06:27:16.713Z,11.23
2018-01-23T06:28:23.244Z,11.75
2018-01-23T06:29:29.400Z,10.98
2018-01-23T06:30:35.570Z,11.05
2018-01-23T06:31:41.840Z,10.75
2018-01-23T06:32:48.283Z,10.30
2018-01-23T06:33:54.247Z,11.85
2018-01-23T06:35:00.896Z,10.55
2018-01-23T06:36:07.165Z,10.20
2018-01-23T06:37:13.311Z,11.95
2018-01-23T06:38:19.494Z,10.30
2018-01-23T06:39:25.643Z,12.00
2018-01-23T06:40:31.902Z,10.68
2018-01-23T06:41:38.035Z,10.77
2018-01-23T06:42:44.256Z,10.52
2018-01-23T06:43:50.425Z,10.77
2018-01-23T06:44:56.933Z,10.40
2018-01-23T06:46:03.174Z,11.00
2018-01-23T06:47:09.358Z,11.00
2018-01-23T06:48:15.544Z,12.00
2018-01-23T06:49:21.677Z,10.10
2018-01-23T06:50:28.101Z,10.90
2018-01-23T06:51:38.996Z,9.48
2018-01-23T06:52:45.183Z,10.68
2018-01-23T06:53:56.369Z,11.07
2018-01-23T06:55:02.515Z,10.13
2018-01-23T06:56:08.888Z,10.68
2018-01-23T06:57:15.290Z,10.80
2018-01-23T06:58:23.335Z,10.75
2018-01-23T06:59:29.356Z,9.48
2018-01-23T07:00:35.533Z,9.98
2018-01-23T07:01:41.619Z,11.63
2018-01-23T07:02:47.976Z,9.45
2018-01-23T07:03:54.953Z,10.10
2018-01-23T07:05:01.353Z,10.90
2018-01-23T07:06:07.759Z,11.70
2018-01-23T07:07:14.221Z,10.88
2018-01-23T07:08:20.551Z,10.57
2018-01-23T07:09:27.883Z,11.10
2018-01-23T07:10:36.340Z,10.75
2018-01-23T07:11:44.394Z,11.32
2018-01-23T07:12:51.564Z,11.05
2018-01-23T07:13:57.868Z,10.25
2018-01-23T07:15:03.831Z,11.25
2018-01-23T07:16:10.140Z,9.73
2018-01-23T07:17:16.419Z,9.60
2018-01-23T07:18:22.815Z,10.48
2018-01-23T07:19:29.057Z,10.68
2018-01-23T07:20:35.492Z,9.25
2018-01-23T07:21:41.875Z,9.60
2018-01-23T07:22:47.970Z,10.77
2018-01-23T07:23:54.169Z,11.80
2018-01-23T07:25:00.337Z,10.75
2018-01-23T07:26:06.890Z,10.65
2018-01-23T07:27:13.278Z,10.32
2018-01-23T07:28:19.821Z,11.32
2018-01-23T07:29:26.248Z,10.82
2018-01-23T07:30:32.857Z,10.77
2018-01-23T07:31:39.276Z,11.88
2018-01-23T07:32:45.683Z,12.15
2018-01-23T07:33:52.008Z,10.30
2018-01-23T07:35:03.488Z,10.88
2018-01-23T07:36:09.747Z,11.68
2018-01-23T07:37:15.994Z,11.02
2018-01-23T07:38:22.608Z,10.55
2018-01-23T07:39:28.880Z,11.57
2018-01-23T07:40:35.599Z,10.57
2018-01-23T07:41:41.951Z,10.88
2018-01-23T07:42:48.287Z,10.68
2018-01-23T07:43:54.983Z,11.00
2018-01-23T07:45:01.178Z,10.95
2018-01-23T07:46:07.616Z,11.00
2018-01-23T07:47:13.829Z,11.18
2018-01-23T07:48:20.226Z,12.35
2018-01-23T07:49:27.401Z,10.75
2018-01-23T07:50:34.172Z,12.00
2018-01-23T07:51:40.396Z,11.63
2018-01-23T07:52:46.943Z,12.48
2018-01-23T07:53:53.135Z,11.25
2018-01-23T07:55:01.710Z,13.52
2018-01-23T07:56:08.616Z,12.23
2018-01-23T07:57:15.960Z,13.35
2018-01-23T07:58:22.496Z,12.00
2018-01-23T07:59:30.250Z,12.75
2018-01-23T08:00:36.582Z,11.57
2018-01-23T08:01:43.158Z,12.05
2018-01-23T08:02:54.989Z,11.93
2018-01-23T08:04:03.584Z,12.25
2018-01-23T08:05:12.699Z,11.73
2018-01-23T08:06:20.772Z,12.75
2018-01-23T08:07:28.837Z,12.75
2018-01-23T08:08:36.625Z,12.68
2018-01-23T08:09:42.821Z,12.65
2018-01-23T08:10:49.091Z,12.80
2018-01-23T08:11:55.365Z,14.23
2018-01-23T08:13:02.264Z,13.50
2018-01-23T08:14:08.645Z,13.38
2018-01-23T08:15:14.944Z,12.40
2018-01-23T08:16:22.395Z,13.48
2018-01-23T08:17:28.865Z,13.62
2018-01-23T08:18:35.318Z,14.20
2018-01-23T08:19:42.011Z,12.77
2018-01-23T08:20:48.644Z,14.07
2018-01-23T08:21:54.929Z,13.43
2018-01-23T08:23:01.152Z,13.15
2018-01-23T08:24:07.695Z,12.65
2018-01-23T08:25:13.910Z,13.95
2018-01-23T08:26:20.174Z,14.60
2018-01-23T08:27:26.351Z,12.65
2018-01-23T08:28:32.650Z,12.50
2018-01-23T08:29:39.180Z,13.45
2018-01-23T08:30:45.529Z,13.07
2018-01-23T08:31:51.723Z,13.85
2018-01-23T08:32:57.941Z,12.77
2018-01-23T08:34:03.410Z,14.82
2018-01-23T08:35:09.642Z,14.45
2018-01-23T08:36:15.857Z,14.50
2018-01-23T08:37:22.213Z,14.68
2018-01-23T08:38:28.367Z,15.82
2018-01-23T08:39:34.539Z,14.98
2018-01-23T08:40:40.728Z,14.50
2018-01-23T08:41:46.901Z,14.65
2018-01-23T08:42:53.031Z,14.43
2018-01-23T08:43:59.257Z,14.38
2018-01-23T08:45:04.722Z,15.48
2018-01-23T08:46:16.034Z,14.75
2018-01-23T08:47:22.409Z,14.40
2018-01-23T08:48:29.488Z,14.90
2018-01-23T08:49:35.628Z,15.27
2018-01-23T08:50:41.815Z,15.30
2018-01-23T08:51:48.952Z,15.85
2018-01-23T08:52:59.842Z,17.08
2018-01-23T08:54:06.490Z,15.23
2018-01-23T08:55:12.702Z,15.00
2018-01-23T08:56:19.285Z,17.27
2018-01-23T08:57:26.027Z,15.40
2018-01-23T08:58:33.131Z,16.08
2018-01-23T08:59:40.173Z,15.73
2018-01-23T09:00:47.028Z,16.60
2018-01-23T09:01:53.679Z,16.50
2018-01-23T09:03:00.192Z,14.98
2018-01-23T09:04:07.591Z,16.35
2018-01-23T09:05:14.828Z,14.98
2018-01-23T09:06:21.571Z,16.45
2018-01-23T09:07:28.250Z,17.23
2018-01-23T09:08:35.154Z,16.83
2018-01-23T09:09:41.596Z,15.70
2018-01-23T09:10:47.840Z,16.70
2018-01-23T09:11:54.493Z,15.73
2018-01-23T09:13:00.869Z,17.35
2018-01-23T09:14:06.720Z,18.15
2018-01-23T09:15:13.154Z,15.63
2018-01-23T09:16:19.407Z,15.98
2018-01-23T09:17:26.568Z,15.52
2018-01-23T09:18:32.831Z,14.95
2018-01-23T09:19:39.177Z,16.02
2018-01-23T09:20:46.173Z,16.27
2018-01-23T09:21:52.404Z,17.33
2018-01-23T09:22:58.625Z,17.20
2018-01-23T09:24:05.223Z,17.00
2018-01-23T09:25:11.525Z,16.90
2018-01-23T09:26:17.800Z,17.20
2018-01-23T09:27:24.076Z,17.98
2018-01-23T09:28:30.301Z,15.40
2018-01-23T09:29:36.501Z,15.75
2018-01-23T09:30:42.790Z,16.50
2018-01-23T09:31:48.964Z,15.85
2018-01-23T09:32:55.137Z,17.70
2018-01-23T09:34:01.293Z,16.15
2018-01-23T09:35:07.483Z,15.35
2018-01-23T09:36:13.692Z,16.98
2018-01-23T09:37:20.115Z,18.67
2018-01-23T09:38:26.420Z,16.77
2018-01-23T09:39:32.551Z,15.52
2018-01-23T09:40:38.823Z,16.90
2018-01-23T09:41:45.161Z,16.80
2018-01-23T09:42:53.349Z,17.12
2018-01-23T09:43:59.855Z,17.20
2018-01-23T09:45:05.988Z,16.65
2018-01-23T09:46:15.406Z,18.20
2018-01-23T09:47:21.816Z,15.65
2018-01-23T09:48:28.005Z,16.00
2018-01-23T09:49:34.265Z,17.20
2018-01-23T09:50:40.444Z,16.00
2018-01-23T09:51:46.556Z,16.55
2018-01-23T09:52:53.078Z,15.15
2018-01-23T09:53:59.738Z,15.77
2018-01-23T09:55:06.120Z,15.00
2018-01-23T09:56:12.674Z,17.02
2018-01-23T09:57:19.372Z,15.60
2018-01-23T09:58:25.820Z,16.35
2018-01-23T09:59:32.320Z,16.12
2018-01-23T10:00:38.644Z,15.60
2018-01-23T10:01:45.353Z,16.10
2018-01-23T10:02:52.385Z,16.12
2018-01-23T10:03:58.929Z,17.37
2018-01-23T10:05:04.755Z,16.20
2018-01-23T10:06:11.520Z,16.27
2018-01-23T10:07:18.096Z,17.42
2018-01-23T10:08:25.072Z,15.70
2018-01-23T10:09:31.906Z,14.98
2018-01-23T10:10:38.436Z,14.87
2018-01-23T10:11:44.556Z,15.02
2018-01-23T10:12:51.058Z,14.90
2018-01-23T10:13:57.523Z,15.65
2018-01-23T10:15:03.574Z,16.00
2018-01-23T10:16:09.981Z,14.65
2018-01-23T10:17:17.201Z,17.30
2018-01-23T10:18:23.461Z,16.70
2018-01-23T10:19:30.055Z,16.83
2018-01-23T10:20:36.982Z,15.70
2018-01-23T10:21:43.463Z,17.45
2018-01-23T10:22:49.759Z,17.20
2018-01-23T10:23:55.993Z,17.62
2018-01-23T10:25:02.484Z,16.33
2018-01-23T10:26:09.029Z,18.33
2018-01-23T10:27:16.370Z,16.83
2018-01-23T10:28:23.044Z,17.23
2018-01-23T10:29:29.643Z,17.60
2018-01-23T10:30:36.167Z,16.05
2018-01-23T10:31:42.857Z,15.52
2018-01-23T10:32:49.381Z,15.93
2018-01-23T10:34:03.579Z,15.05
2018-01-23T10:35:10.037Z,16.90
2018-01-23T10:36:16.456Z,15.10
2018-01-23T10:37:23.112Z,15.60
2018-01-23T10:38:29.637Z,15.13
2018-01-23T10:39:39.371Z,16.52
2018-01-23T10:40:45.640Z,15.80
2018-01-23T10:41:53.041Z,16.20
2018-01-23T10:43:00.241Z,15.50
2018-01-23T10:44:06.685Z,15.52
2018-01-23T10:45:13.009Z,15.75
2018-01-23T10:46:19.230Z,15.10
2018-01-23T10:47:26.423Z,17.25
2018-01-23T10:48:32.475Z,16.02
2018-01-23T10:49:38.482Z,16.73
2018-01-23T10:50:44.799Z,16.37
2018-01-23T10:51:51.259Z,15.38
2018-01-23T10:52:57.368Z,14.87
2018-01-23T10:54:06.113Z,15.27
2018-01-23T10:55:12.446Z,16.15
2018-01-23T10:56:18.831Z,14.75
2018-01-23T10:57:25.058Z,16.08
2018-01-23T10:58:31.551Z,14.98
2018-01-23T10:59:37.845Z,16.23
2018-01-23T11:00:50.663Z,16.30
2018-01-23T11:01:58.728Z,15.52
2018-01-23T11:03:04.905Z,16.23
2018-01-23T11:04:11.450Z,15.35
2018-01-23T11:05:17.863Z,16.12
2018-01-23T11:06:23.834Z,16.80
2018-01-23T11:07:30.040Z,15.85
2018-01-23T11:08:36.449Z,15.57
2018-01-23T11:09:42.998Z,15.30
2018-01-23T11:10:49.462Z,15.15
2018-01-23T11:11:55.635Z,15.30
2018-01-23T11:13:02.546Z,15.27
2018-01-23T11:14:09.425Z,15.95
2018-01-23T11:15:15.901Z,15.13
2018-01-23T11:16:22.486Z,15.20
2018-01-23T11:17:29.227Z,15.07
2018-01-23T11:18:35.593Z,13.50
2018-01-23T11:19:42.065Z,12.93
2018-01-23T11:20:48.849Z,13.77
2018-01-23T11:21:55.367Z,13.50
2018-01-23T11:23:02.054Z,13.93
2018-01-23T11:24:08.465Z,13.98
2018-01-23T11:25:14.631Z,14.75
2018-01-23T11:26:21.052Z,14.35
2018-01-23T11:27:27.839Z,13.90
2018-01-23T11:28:34.205Z,13.35
2018-01-23T11:29:45.956Z,14.20
2018-01-23T11:30:52.397Z,13.60
2018-01-23T11:31:58.889Z,15.65
2018-01-23T11:33:05.799Z,15.15
2018-01-23T11:34:12.467Z,13.88
2018-01-23T11:35:18.816Z,13.80
2018-01-23T11:36:27.345Z,14.32
2018-01-23T11:37:33.740Z,14.07
2018-01-23T11:38:40.276Z,13.93
2018-01-23T11:39:46.671Z,14.20
2018-01-23T11:40:53.140Z,15.98
2018-01-23T11:41:59.494Z,14.55
2018-01-23T11:43:05.924Z,13.85
2018-01-23T11:44:12.366Z,14.30
2018-01-23T11:45:20.672Z,14.98
2018-01-23T11:46:27.129Z,14.75
2018-01-23T11:47:33.299Z,15.48
2018-01-23T11:48:39.728Z,16.15
2018-01-23T11:49:46.179Z,15.10
2018-01-23T11:50:52.505Z,14.05
2018-01-23T11:51:59.049Z,13.38
2018-01-23T11:53:05.453Z,15.38
2018-01-23T11:54:11.780Z,15.52
2018-01-23T11:55:18.569Z,15.45
2018-01-23T11:56:25.316Z,15.68
2018-01-23T11:57:31.896Z,14.85
2018-01-23T11:58:38.586Z,14.38
2018-01-23T11:59:44.887Z,16.10
2018-01-23T12:00:51.241Z,14.90
2018-01-23T12:01:57.578Z,14.45
2018-01-23T12:03:04.070Z,14.20
2018-01-23T12:04:10.495Z,13.68
2018-01-23T12:05:17.050Z,13.50
2018-01-23T12:06:23.418Z,13.75
2018-01-23T12:07:29.607Z,13.90
2018-01-23T12:08:35.505Z,14.18
2018-01-23T12:09:41.840Z,15.35
2018-01-23T12:10:48.462Z,14.35
2018-01-23T12:11:54.898Z,16.73
2018-01-23T12:13:01.224Z,14.07
2018-01-23T12:14:08.245Z,14.40
2018-01-23T12:15:14.722Z,14.15
2018-01-23T12:16:21.552Z,15.02
2018-01-23T12:17:29.331Z,12.80
2018-01-23T12:18:35.607Z,12.90
2018-01-23T12:19:41.943Z,12.55
2018-01-23T12:20:48.477Z,13.60
2018-01-23T12:21:54.816Z,12.68
2018-01-23T12:23:01.254Z,12.63
2018-01-23T12:24:07.553Z,13.45
2018-01-23T12:25:13.969Z,12.75
2018-01-23T12:26:20.690Z,13.15
2018-01-23T12:27:27.842Z,12.15
2018-01-23T12:28:34.544Z,13.23
2018-01-23T12:29:40.665Z,12.50
2018-01-23T12:30:46.788Z,11.68
2018-01-23T12:31:53.440Z,12.02
2018-01-23T12:33:00.115Z,11.73
2018-01-23T12:34:06.392Z,12.32
2018-01-23T12:35:12.672Z,13.05
2018-01-23T12:36:19.005Z,12.52
2018-01-23T12:37:25.598Z,12.95
2018-01-23T12:38:31.995Z,12.95
2018-01-23T12:39:38.364Z,11.90
2018-01-23T12:40:44.680Z,12.27
2018-01-23T12:41:51.384Z,14.02
2018-01-23T12:42:57.672Z,12.37
2018-01-23T12:44:03.906Z,12.73
2018-01-23T12:45:10.313Z,11.30
2018-01-23T12:46:17.233Z,13.13
2018-01-23T12:47:23.665Z,11.73
2018-01-23T12:48:30.050Z,12.05
2018-01-23T12:49:36.296Z,12.37
2018-01-23T12:50:42.868Z,11.30
2018-01-23T12:51:49.122Z,12.40
2018-01-23T12:52:55.388Z,13.80
2018-01-23T12:54:01.528Z,14.50
2018-01-23T12:55:07.751Z,13.15
2018-01-23T12:56:13.933Z,13.40
2018-01-23T12:57:21.095Z,13.52
2018-01-23T12:58:27.232Z,14.23
2018-01-23T12:59:33.349Z,12.75
2018-01-23T13:00:39.729Z,13.52
2018-01-23T13:01:45.888Z,14.02
2018-01-23T13:02:52.294Z,14.48
2018-01-23T13:03:58.462Z,12.30
2018-01-23T13:05:04.310Z,12.68
2018-01-23T13:06:10.440Z,12.65
2018-01-23T13:07:16.629Z,14.77
2018-01-23T13:08:22.866Z,14.13
2018-01-23T13:09:29.235Z,13.20
2018-01-23T13:10:36.267Z,13.50
2018-01-23T13:11:42.397Z,13.82
2018-01-23T13:12:48.532Z,14.15
2018-01-23T13:13:54.820Z,13.55
2018-01-23T13:15:01.000Z,14.20
2018-01-23T13:16:07.224Z,12.23
2018-01-23T13:17:13.816Z,12.45
2018-01-23T13:18:20.554Z,12.75
2018-01-23T13:19:26.699Z,11.73
2018-01-23T13:20:32.888Z,12.00
2018-01-23T13:21:39.220Z,12.90
2018-01-23T13:22:45.400Z,11.10
2018-01-23T13:23:56.666Z,12.25
2018-01-23T13:25:02.840Z,10.55
2018-01-23T13:26:09.015Z,11.68
2018-01-23T13:27:15.152Z,10.95
2018-01-23T13:28:23.295Z,11.98
2018-01-23T13:29:29.477Z,12.23
2018-01-23T13:30:35.652Z,12.35
2018-01-23T13:31:41.848Z,11.77
2018-01-23T13:32:48.083Z,12.15
2018-01-23T13:34:00.323Z,12.30
2018-01-23T13:35:06.196Z,11.63
2018-01-23T13:36:12.359Z,11.45
2018-01-23T13:37:18.567Z,11.43
2018-01-23T13:38:27.776Z,11.50
2018-01-23T13:39:33.949Z,11.25
2018-01-23T13:40:40.148Z,11.65
2018-01-23T13:41:46.428Z,11.32
2018-01-23T13:42:52.601Z,11.73
2018-01-23T13:43:58.744Z,10.52
2018-01-23T13:45:04.577Z,10.82
2018-01-23T13:46:10.770Z,12.05
2018-01-23T13:47:16.894Z,12.37
2018-01-23T13:48:23.026Z,11.88
2018-01-23T13:49:29.228Z,11.02
2018-01-23T13:50:35.402Z,10.98
2018-01-23T13:51:41.672Z,11.65
2018-01-23T13:52:47.863Z,12.37
2018-01-23T13:53:54.004Z,11.88
2018-01-23T13:55:00.132Z,11.15
2018-01-23T13:56:06.334Z,12.32
2018-01-23T13:57:12.536Z,11.77
2018-01-23T13:58:18.736Z,11.95
2018-01-23T13:59:24.957Z,11.45
2018-01-23T14:00:31.139Z,11.45
2018-01-23T14:01:37.096Z,12.37
2018-01-23T14:02:43.259Z,12.02
2018-01-23T14:03:49.401Z,12.02
2018-01-23T14:04:55.584Z,12.60
2018-01-23T14:06:01.763Z,12.02
2018-01-23T14:07:08.016Z,12.00
2018-01-23T14:08:14.194Z,11.35
2018-01-23T14:09:20.381Z,12.30
2018-01-23T14:10:26.620Z,12.50
2018-01-23T14:11:32.748Z,11.55
2018-01-23T14:12:38.871Z,10.75
2018-01-23T14:13:45.026Z,11.12
2018-01-23T14:14:51.218Z,10.70
2018-01-23T14:15:57.393Z,12.15
2018-01-23T14:17:03.599Z,10.10
2018-01-23T14:18:09.742Z,10.82